sensor_id;sensor_type;location;lat;lon;timestamp;temperature;humidity
26037;DHT22;13810;48.376;10.944;2023-11-19T00:00:18;6.10;99.90
26037;DHT22;13810;48.376;10.944;2023-11-19T00:00:48;6.10;99.90
26037;DHT22;13810;48.376;10.944;2023-11-19T00:01:19;6.10;99.90
26037;DHT22;13810;48.376;10.944;2023-11-19T00:01:49;6.10;99.90
26037;DHT22;13810;48.376;10.944;2023-11-19T00:02:20;6.10;99.90
26037;DHT22;13810;48.376;10.944;2023-11-19T00:02:51;6.10;99.90
26037;DHT22;13810;48.376;10.944;2023-11-19T00:03:21;6.10;99.90
26037;DHT22;13810;48.376;10.944;2023-11-19T00:03:52;6.10;99.90
26037;DHT22;13810;48.376;10.944;2023-11-19T00:04:23;6.10;99.90
26037;DHT22;13810;48.376;10.944;2023-11-19T00:04:54;6.10;99.90
26037;DHT22;13810;48.376;10.944;2023-11-19T00:05:24;6.10;99.90
26037;DHT22;13810;48.376;10.944;2023-11-19T00:05:55;6.10;99.90
26037;DHT22;13810;48.376;10.944;2023-11-19T00:06:26;6.20;99.90
26037;DHT22;13810;48.376;10.944;2023-11-19T00:06:57;6.20;99.90
26037;DHT22;13810;48.376;10.944;2023-11-19T00:07:32;6.20;99.90
26037;DHT22;13810;48.376;10.944;2023-11-19T00:08:03;6.20;99.90
26037;DHT22;13810;48.376;10.944;2023-11-19T00:08:34;6.20;99.90
26037;DHT22;13810;48.376;10.944;2023-11-19T00:09:04;6.20;99.90
26037;DHT22;13810;48.376;10.944;2023-11-19T00:09:36;6.20;99.90
26037;DHT22;13810;48.376;10.944;2023-11-19T00:10:11;6.20;99.90
26037;DHT22;13810;48.376;10.944;2023-11-19T00:10:42;6.20;99.90
26037;DHT22;13810;48.376;10.944;2023-11-19T00:11:13;6.20;99.90
26037;DHT22;13810;48.376;10.944;2023-11-19T00:11:45;6.20;99.90
26037;DHT22;13810;48.376;10.944;2023-11-19T00:12:16;6.20;99.90
26037;DHT22;13810;48.376;10.944;2023-11-19T00:12:47;6.20;99.90
26037;DHT22;13810;48.376;10.944;2023-11-19T00:13:18;6.20;99.90
26037;DHT22;13810;48.376;10.944;2023-11-19T00:13:48;6.20;99.90
26037;DHT22;13810;48.376;10.944;2023-11-19T00:14:19;6.20;99.90
26037;DHT22;13810;48.376;10.944;2023-11-19T00:14:50;6.20;99.90
26037;DHT22;13810;48.376;10.944;2023-11-19T00:15:20;6.20;99.90
26037;DHT22;13810;48.376;10.944;2023-11-19T00:15:51;6.20;99.90
26037;DHT22;13810;48.376;10.944;2023-11-19T00:16:21;6.20;99.90
26037;DHT22;13810;48.376;10.944;2023-11-19T00:16:52;6.20;99.90
26037;DHT22;13810;48.376;10.944;2023-11-19T00:17:24;6.30;99.90
26037;DHT22;13810;48.376;10.944;2023-11-19T00:17:54;6.30;99.90
26037;DHT22;13810;48.376;10.944;2023-11-19T00:18:25;6.20;99.90
26037;DHT22;13810;48.376;10.944;2023-11-19T00:18:55;6.30;99.90
26037;DHT22;13810;48.376;10.944;2023-11-19T00:19:26;6.30;99.90
26037;DHT22;13810;48.376;10.944;2023-11-19T00:19:57;6.30;99.90
26037;DHT22;13810;48.376;10.944;2023-11-19T00:20:27;6.30;99.90
26037;DHT22;13810;48.376;10.944;2023-11-19T00:20:59;6.30;99.90
26037;DHT22;13810;48.376;10.944;2023-11-19T00:21:29;6.30;99.90
26037;DHT22;13810;48.376;10.944;2023-11-19T00:22:00;6.30;99.90
26037;DHT22;13810;48.376;10.944;2023-11-19T00:22:33;6.30;99.90
26037;DHT22;13810;48.376;10.944;2023-11-19T00:23:03;6.30;99.90
26037;DHT22;13810;48.376;10.944;2023-11-19T00:23:34;6.30;99.90
26037;DHT22;13810;48.376;10.944;2023-11-19T00:24:05;6.30;99.90
26037;DHT22;13810;48.376;10.944;2023-11-19T00:24:35;6.30;99.90
26037;DHT22;13810;48.376;10.944;2023-11-19T00:25:06;6.30;99.90
26037;DHT22;13810;48.376;10.944;2023-11-19T00:25:37;6.30;99.90
26037;DHT22;13810;48.376;10.944;2023-11-19T00:26:09;6.30;99.90
26037;DHT22;13810;48.376;10.944;2023-11-19T00:26:39;6.30;99.90
26037;DHT22;13810;48.376;10.944;2023-11-19T00:27:10;6.30;99.90
26037;DHT22;13810;48.376;10.944;2023-11-19T00:27:41;6.30;99.90
26037;DHT22;13810;48.376;10.944;2023-11-19T00:28:14;6.30;99.90
26037;DHT22;13810;48.376;10.944;2023-11-19T00:28:45;6.40;99.90
26037;DHT22;13810;48.376;10.944;2023-11-19T00:29:18;6.30;99.90
26037;DHT22;13810;48.376;10.944;2023-11-19T00:29:50;6.40;99.90
26037;DHT22;13810;48.376;10.944;2023-11-19T00:30:21;6.40;99.90
26037;DHT22;13810;48.376;10.944;2023-11-19T00:30:51;6.40;99.90
26037;DHT22;13810;48.376;10.944;2023-11-19T00:31:22;6.40;99.90
26037;DHT22;13810;48.376;10.944;2023-11-19T00:31:52;6.40;99.90
26037;DHT22;13810;48.376;10.944;2023-11-19T00:32:23;6.40;99.90
26037;DHT22;13810;48.376;10.944;2023-11-19T00:32:53;6.40;99.90
26037;DHT22;13810;48.376;10.944;2023-11-19T00:33:24;6.40;99.90
26037;DHT22;13810;48.376;10.944;2023-11-19T00:33:55;6.40;99.90
26037;DHT22;13810;48.376;10.944;2023-11-19T00:34:25;6.40;99.90
26037;DHT22;13810;48.376;10.944;2023-11-19T00:34:56;6.40;99.90
26037;DHT22;13810;48.376;10.944;2023-11-19T00:35:26;6.40;99.90
26037;DHT22;13810;48.376;10.944;2023-11-19T00:35:57;6.40;99.90
26037;DHT22;13810;48.376;10.944;2023-11-19T00:36:28;6.40;99.90
26037;DHT22;13810;48.376;10.944;2023-11-19T00:36:58;6.40;99.90
26037;DHT22;13810;48.376;10.944;2023-11-19T00:37:29;6.50;99.90
26037;DHT22;13810;48.376;10.944;2023-11-19T00:37:59;6.40;99.90
26037;DHT22;13810;48.376;10.944;2023-11-19T00:38:30;6.50;99.90
26037;DHT22;13810;48.376;10.944;2023-11-19T00:39:01;6.50;99.90
26037;DHT22;13810;48.376;10.944;2023-11-19T00:39:32;6.50;99.90
26037;DHT22;13810;48.376;10.944;2023-11-19T00:40:02;6.40;99.90
26037;DHT22;13810;48.376;10.944;2023-11-19T00:40:35;6.50;99.90
26037;DHT22;13810;48.376;10.944;2023-11-19T00:41:06;6.50;99.90
26037;DHT22;13810;48.376;10.944;2023-11-19T00:41:36;6.50;99.90
26037;DHT22;13810;48.376;10.944;2023-11-19T00:42:07;6.50;99.90
26037;DHT22;13810;48.376;10.944;2023-11-19T00:42:38;6.50;99.90
26037;DHT22;13810;48.376;10.944;2023-11-19T00:43:08;6.50;99.90
26037;DHT22;13810;48.376;10.944;2023-11-19T00:43:39;6.50;99.90
26037;DHT22;13810;48.376;10.944;2023-11-19T00:44:09;6.50;99.90
26037;DHT22;13810;48.376;10.944;2023-11-19T00:44:40;6.50;99.90
26037;DHT22;13810;48.376;10.944;2023-11-19T00:45:11;6.50;99.90
26037;DHT22;13810;48.376;10.944;2023-11-19T00:45:43;6.50;99.90
26037;DHT22;13810;48.376;10.944;2023-11-19T00:46:14;6.50;99.90
26037;DHT22;13810;48.376;10.944;2023-11-19T00:46:45;6.50;99.90
26037;DHT22;13810;48.376;10.944;2023-11-19T00:47:15;6.50;99.90
26037;DHT22;13810;48.376;10.944;2023-11-19T00:47:46;6.50;99.90
26037;DHT22;13810;48.376;10.944;2023-11-19T00:48:16;6.50;99.90
26037;DHT22;13810;48.376;10.944;2023-11-19T00:48:47;6.50;99.90
26037;DHT22;13810;48.376;10.944;2023-11-19T00:49:18;6.50;99.90
26037;DHT22;13810;48.376;10.944;2023-11-19T00:49:48;6.50;99.90
26037;DHT22;13810;48.376;10.944;2023-11-19T00:50:19;6.60;99.90
26037;DHT22;13810;48.376;10.944;2023-11-19T00:50:49;6.50;99.90
26037;DHT22;13810;48.376;10.944;2023-11-19T00:51:20;6.50;99.90
26037;DHT22;13810;48.376;10.944;2023-11-19T00:51:50;6.50;99.90
26037;DHT22;13810;48.376;10.944;2023-11-19T00:52:21;6.60;99.90
26037;DHT22;13810;48.376;10.944;2023-11-19T00:52:52;6.60;99.90
26037;DHT22;13810;48.376;10.944;2023-11-19T00:53:22;6.60;99.90
26037;DHT22;13810;48.376;10.944;2023-11-19T00:53:53;6.60;99.90
26037;DHT22;13810;48.376;10.944;2023-11-19T00:54:24;6.60;99.90
26037;DHT22;13810;48.376;10.944;2023-11-19T00:54:56;6.60;99.90
26037;DHT22;13810;48.376;10.944;2023-11-19T00:55:27;6.60;99.90
26037;DHT22;13810;48.376;10.944;2023-11-19T00:55:57;6.60;99.90
26037;DHT22;13810;48.376;10.944;2023-11-19T00:56:28;6.60;99.90
26037;DHT22;13810;48.376;10.944;2023-11-19T00:56:59;6.60;99.90
26037;DHT22;13810;48.376;10.944;2023-11-19T00:57:30;6.60;99.90
26037;DHT22;13810;48.376;10.944;2023-11-19T00:58:00;6.60;99.90
26037;DHT22;13810;48.376;10.944;2023-11-19T00:58:31;6.70;99.90
26037;DHT22;13810;48.376;10.944;2023-11-19T00:59:02;6.60;99.90
26037;DHT22;13810;48.376;10.944;2023-11-19T00:59:33;6.60;99.90
26037;DHT22;13810;48.376;10.944;2023-11-19T01:00:04;6.60;99.90
26037;DHT22;13810;48.376;10.944;2023-11-19T01:00:43;6.60;99.90
26037;DHT22;13810;48.376;10.944;2023-11-19T01:01:15;6.70;99.90
26037;DHT22;13810;48.376;10.944;2023-11-19T01:01:45;6.60;99.90
26037;DHT22;13810;48.376;10.944;2023-11-19T01:02:18;6.70;99.90
26037;DHT22;13810;48.376;10.944;2023-11-19T01:02:48;6.70;99.90
26037;DHT22;13810;48.376;10.944;2023-11-19T01:03:20;6.70;99.90
26037;DHT22;13810;48.376;10.944;2023-11-19T01:03:51;6.70;99.90
26037;DHT22;13810;48.376;10.944;2023-11-19T01:04:21;6.70;99.90
26037;DHT22;13810;48.376;10.944;2023-11-19T01:04:52;6.70;99.90
26037;DHT22;13810;48.376;10.944;2023-11-19T01:05:22;6.70;99.90
26037;DHT22;13810;48.376;10.944;2023-11-19T01:05:53;6.70;99.90
26037;DHT22;13810;48.376;10.944;2023-11-19T01:06:27;6.70;99.90
26037;DHT22;13810;48.376;10.944;2023-11-19T01:06:57;6.70;99.90
26037;DHT22;13810;48.376;10.944;2023-11-19T01:07:28;6.70;99.90
26037;DHT22;13810;48.376;10.944;2023-11-19T01:07:59;6.70;99.90
26037;DHT22;13810;48.376;10.944;2023-11-19T01:08:29;6.70;99.90
26037;DHT22;13810;48.376;10.944;2023-11-19T01:09:00;6.70;99.90
26037;DHT22;13810;48.376;10.944;2023-11-19T01:09:31;6.80;99.90
26037;DHT22;13810;48.376;10.944;2023-11-19T01:10:05;6.70;99.90
26037;DHT22;13810;48.376;10.944;2023-11-19T01:10:37;6.80;99.90
26037;DHT22;13810;48.376;10.944;2023-11-19T01:11:08;6.80;99.90
26037;DHT22;13810;48.376;10.944;2023-11-19T01:11:38;6.80;99.90
26037;DHT22;13810;48.376;10.944;2023-11-19T01:12:09;6.80;99.90
26037;DHT22;13810;48.376;10.944;2023-11-19T01:12:40;6.80;99.90
26037;DHT22;13810;48.376;10.944;2023-11-19T01:13:11;6.80;99.90
26037;DHT22;13810;48.376;10.944;2023-11-19T01:13:41;6.80;99.90
26037;DHT22;13810;48.376;10.944;2023-11-19T01:14:12;6.80;99.90
26037;DHT22;13810;48.376;10.944;2023-11-19T01:14:42;6.80;99.90
26037;DHT22;13810;48.376;10.944;2023-11-19T01:15:13;6.80;99.90
26037;DHT22;13810;48.376;10.944;2023-11-19T01:15:44;6.80;99.90
26037;DHT22;13810;48.376;10.944;2023-11-19T01:16:14;6.80;99.90
26037;DHT22;13810;48.376;10.944;2023-11-19T01:16:45;6.90;99.90
26037;DHT22;13810;48.376;10.944;2023-11-19T01:17:15;6.80;99.90
26037;DHT22;13810;48.376;10.944;2023-11-19T01:17:46;6.90;99.90
26037;DHT22;13810;48.376;10.944;2023-11-19T01:18:17;6.90;99.90
26037;DHT22;13810;48.376;10.944;2023-11-19T01:18:47;6.90;99.90
26037;DHT22;13810;48.376;10.944;2023-11-19T01:19:19;6.90;99.90
26037;DHT22;13810;48.376;10.944;2023-11-19T01:19:49;6.90;99.90
26037;DHT22;13810;48.376;10.944;2023-11-19T01:20:20;7.00;99.90
26037;DHT22;13810;48.376;10.944;2023-11-19T01:20:51;7.00;99.90
26037;DHT22;13810;48.376;10.944;2023-11-19T01:21:22;6.90;99.90
26037;DHT22;13810;48.376;10.944;2023-11-19T01:21:52;7.00;99.90
26037;DHT22;13810;48.376;10.944;2023-11-19T01:22:23;7.00;99.90
26037;DHT22;13810;48.376;10.944;2023-11-19T01:22:53;7.00;99.90
26037;DHT22;13810;48.376;10.944;2023-11-19T01:23:24;7.00;99.90
26037;DHT22;13810;48.376;10.944;2023-11-19T01:23:54;7.00;99.90
26037;DHT22;13810;48.376;10.944;2023-11-19T01:24:25;7.00;99.90
26037;DHT22;13810;48.376;10.944;2023-11-19T01:24:58;7.00;99.90
26037;DHT22;13810;48.376;10.944;2023-11-19T01:25:29;7.00;99.90
26037;DHT22;13810;48.376;10.944;2023-11-19T01:26:00;7.00;99.90
26037;DHT22;13810;48.376;10.944;2023-11-19T01:26:30;7.00;99.90
26037;DHT22;13810;48.376;10.944;2023-11-19T01:27:01;7.00;99.90
26037;DHT22;13810;48.376;10.944;2023-11-19T01:27:31;7.10;99.90
26037;DHT22;13810;48.376;10.944;2023-11-19T01:28:02;7.10;99.90
26037;DHT22;13810;48.376;10.944;2023-11-19T01:28:33;7.10;99.90
26037;DHT22;13810;48.376;10.944;2023-11-19T01:29:03;7.10;99.90
26037;DHT22;13810;48.376;10.944;2023-11-19T01:29:35;7.10;99.90
26037;DHT22;13810;48.376;10.944;2023-11-19T01:30:05;7.10;99.90
26037;DHT22;13810;48.376;10.944;2023-11-19T01:30:39;7.10;99.90
26037;DHT22;13810;48.376;10.944;2023-11-19T01:31:11;7.10;99.90
26037;DHT22;13810;48.376;10.944;2023-11-19T01:31:43;7.10;99.90
26037;DHT22;13810;48.376;10.944;2023-11-19T01:32:14;7.10;99.90
26037;DHT22;13810;48.376;10.944;2023-11-19T01:32:44;7.10;99.90
26037;DHT22;13810;48.376;10.944;2023-11-19T01:33:15;7.10;99.90
26037;DHT22;13810;48.376;10.944;2023-11-19T01:33:45;7.20;99.90
26037;DHT22;13810;48.376;10.944;2023-11-19T01:34:16;7.20;99.90
26037;DHT22;13810;48.376;10.944;2023-11-19T01:34:47;7.20;99.90
26037;DHT22;13810;48.376;10.944;2023-11-19T01:35:18;7.20;99.90
26037;DHT22;13810;48.376;10.944;2023-11-19T01:35:48;7.20;99.90
26037;DHT22;13810;48.376;10.944;2023-11-19T01:36:19;7.20;99.90
26037;DHT22;13810;48.376;10.944;2023-11-19T01:36:49;7.20;99.90
26037;DHT22;13810;48.376;10.944;2023-11-19T01:37:20;7.20;99.90
26037;DHT22;13810;48.376;10.944;2023-11-19T01:37:50;7.20;99.90
26037;DHT22;13810;48.376;10.944;2023-11-19T01:38:21;7.30;99.90
26037;DHT22;13810;48.376;10.944;2023-11-19T01:38:51;7.20;99.90
26037;DHT22;13810;48.376;10.944;2023-11-19T01:39:22;7.30;99.90
26037;DHT22;13810;48.376;10.944;2023-11-19T01:39:52;7.30;99.90
26037;DHT22;13810;48.376;10.944;2023-11-19T01:40:23;7.30;99.90
26037;DHT22;13810;48.376;10.944;2023-11-19T01:40:57;7.30;99.90
26037;DHT22;13810;48.376;10.944;2023-11-19T01:41:27;7.30;99.90
26037;DHT22;13810;48.376;10.944;2023-11-19T01:41:58;7.30;99.90
26037;DHT22;13810;48.376;10.944;2023-11-19T01:42:29;7.30;99.90
26037;DHT22;13810;48.376;10.944;2023-11-19T01:42:59;7.30;99.90
26037;DHT22;13810;48.376;10.944;2023-11-19T01:43:30;7.30;99.90
26037;DHT22;13810;48.376;10.944;2023-11-19T01:44:01;7.30;99.90
26037;DHT22;13810;48.376;10.944;2023-11-19T01:44:31;7.40;99.90
26037;DHT22;13810;48.376;10.944;2023-11-19T01:45:02;7.40;99.90
26037;DHT22;13810;48.376;10.944;2023-11-19T01:45:33;7.30;99.90
26037;DHT22;13810;48.376;10.944;2023-11-19T01:46:04;7.40;99.90
26037;DHT22;13810;48.376;10.944;2023-11-19T01:46:35;7.40;99.90
26037;DHT22;13810;48.376;10.944;2023-11-19T01:47:06;7.40;99.90
26037;DHT22;13810;48.376;10.944;2023-11-19T01:47:37;7.40;99.90
26037;DHT22;13810;48.376;10.944;2023-11-19T01:48:07;7.40;99.90
26037;DHT22;13810;48.376;10.944;2023-11-19T01:48:45;7.40;99.90
26037;DHT22;13810;48.376;10.944;2023-11-19T01:49:15;7.40;99.90
26037;DHT22;13810;48.376;10.944;2023-11-19T01:49:48;7.50;99.90
26037;DHT22;13810;48.376;10.944;2023-11-19T01:50:18;7.50;99.90
26037;DHT22;13810;48.376;10.944;2023-11-19T01:50:50;7.50;99.90
26037;DHT22;13810;48.376;10.944;2023-11-19T01:51:23;7.50;99.90
26037;DHT22;13810;48.376;10.944;2023-11-19T01:51:54;7.50;99.90
26037;DHT22;13810;48.376;10.944;2023-11-19T01:52:25;7.50;99.90
26037;DHT22;13810;48.376;10.944;2023-11-19T01:52:55;7.50;99.90
26037;DHT22;13810;48.376;10.944;2023-11-19T01:53:30;7.50;99.90
26037;DHT22;13810;48.376;10.944;2023-11-19T01:54:01;7.50;99.90
26037;DHT22;13810;48.376;10.944;2023-11-19T01:54:32;7.50;99.90
26037;DHT22;13810;48.376;10.944;2023-11-19T01:55:03;7.50;99.90
26037;DHT22;13810;48.376;10.944;2023-11-19T01:55:34;7.50;99.90
26037;DHT22;13810;48.376;10.944;2023-11-19T01:56:06;7.60;99.90
26037;DHT22;13810;48.376;10.944;2023-11-19T01:56:39;7.60;99.90
26037;DHT22;13810;48.376;10.944;2023-11-19T01:57:13;7.60;99.90
26037;DHT22;13810;48.376;10.944;2023-11-19T01:57:44;7.60;99.90
26037;DHT22;13810;48.376;10.944;2023-11-19T01:58:14;7.60;99.90
26037;DHT22;13810;48.376;10.944;2023-11-19T01:58:45;7.60;99.90
26037;DHT22;13810;48.376;10.944;2023-11-19T01:59:16;7.60;99.90
26037;DHT22;13810;48.376;10.944;2023-11-19T01:59:47;7.60;99.90
26037;DHT22;13810;48.376;10.944;2023-11-19T02:00:18;7.70;99.90
26037;DHT22;13810;48.376;10.944;2023-11-19T02:00:49;7.70;99.90
26037;DHT22;13810;48.376;10.944;2023-11-19T02:01:20;7.70;99.90
26037;DHT22;13810;48.376;10.944;2023-11-19T02:01:50;7.70;99.90
26037;DHT22;13810;48.376;10.944;2023-11-19T02:02:21;7.70;99.90
26037;DHT22;13810;48.376;10.944;2023-11-19T02:02:52;7.70;99.90
26037;DHT22;13810;48.376;10.944;2023-11-19T02:03:22;7.70;99.90
26037;DHT22;13810;48.376;10.944;2023-11-19T02:03:56;7.70;99.90
26037;DHT22;13810;48.376;10.944;2023-11-19T02:04:28;7.70;99.90
26037;DHT22;13810;48.376;10.944;2023-11-19T02:04:59;7.70;99.90
26037;DHT22;13810;48.376;10.944;2023-11-19T02:05:30;7.70;99.90
26037;DHT22;13810;48.376;10.944;2023-11-19T02:06:03;7.70;99.90
26037;DHT22;13810;48.376;10.944;2023-11-19T02:06:34;7.70;99.90
26037;DHT22;13810;48.376;10.944;2023-11-19T02:07:06;7.70;99.90
26037;DHT22;13810;48.376;10.944;2023-11-19T02:07:37;7.70;99.90
26037;DHT22;13810;48.376;10.944;2023-11-19T02:08:07;7.70;99.90
26037;DHT22;13810;48.376;10.944;2023-11-19T02:08:38;7.70;99.90
26037;DHT22;13810;48.376;10.944;2023-11-19T02:09:09;7.80;99.90
26037;DHT22;13810;48.376;10.944;2023-11-19T02:09:42;7.80;99.90
26037;DHT22;13810;48.376;10.944;2023-11-19T02:10:12;7.80;99.90
26037;DHT22;13810;48.376;10.944;2023-11-19T02:10:44;7.80;99.90
26037;DHT22;13810;48.376;10.944;2023-11-19T02:11:15;7.80;99.90
26037;DHT22;13810;48.376;10.944;2023-11-19T02:11:46;7.80;99.90
26037;DHT22;13810;48.376;10.944;2023-11-19T02:12:21;7.80;99.90
26037;DHT22;13810;48.376;10.944;2023-11-19T02:12:52;7.80;99.90
26037;DHT22;13810;48.376;10.944;2023-11-19T02:13:23;7.80;99.90
26037;DHT22;13810;48.376;10.944;2023-11-19T02:13:55;7.80;99.90
26037;DHT22;13810;48.376;10.944;2023-11-19T02:14:26;7.80;99.90
26037;DHT22;13810;48.376;10.944;2023-11-19T02:14:57;7.80;99.90
26037;DHT22;13810;48.376;10.944;2023-11-19T02:15:30;7.80;99.90
26037;DHT22;13810;48.376;10.944;2023-11-19T02:16:01;7.90;99.90
26037;DHT22;13810;48.376;10.944;2023-11-19T02:16:32;7.80;99.90
26037;DHT22;13810;48.376;10.944;2023-11-19T02:17:03;7.80;99.90
26037;DHT22;13810;48.376;10.944;2023-11-19T02:17:34;7.80;99.90
26037;DHT22;13810;48.376;10.944;2023-11-19T02:18:17;7.80;99.90
26037;DHT22;13810;48.376;10.944;2023-11-19T02:18:48;7.80;99.90
26037;DHT22;13810;48.376;10.944;2023-11-19T02:19:19;7.80;99.90
26037;DHT22;13810;48.376;10.944;2023-11-19T02:19:50;7.90;99.90
26037;DHT22;13810;48.376;10.944;2023-11-19T02:20:20;7.90;99.90
26037;DHT22;13810;48.376;10.944;2023-11-19T02:20:51;7.90;99.90
26037;DHT22;13810;48.376;10.944;2023-11-19T02:21:22;7.90;99.90
26037;DHT22;13810;48.376;10.944;2023-11-19T02:21:52;7.80;99.90
26037;DHT22;13810;48.376;10.944;2023-11-19T02:22:23;7.90;99.90
26037;DHT22;13810;48.376;10.944;2023-11-19T02:22:53;7.90;99.90
26037;DHT22;13810;48.376;10.944;2023-11-19T02:23:25;7.90;99.90
26037;DHT22;13810;48.376;10.944;2023-11-19T02:23:57;7.90;99.90
26037;DHT22;13810;48.376;10.944;2023-11-19T02:24:28;7.90;99.90
26037;DHT22;13810;48.376;10.944;2023-11-19T02:25:03;7.90;99.90
26037;DHT22;13810;48.376;10.944;2023-11-19T02:25:34;7.90;99.90
26037;DHT22;13810;48.376;10.944;2023-11-19T02:28:00;7.90;99.90
26037;DHT22;13810;48.376;10.944;2023-11-19T02:28:32;8.00;99.90
26037;DHT22;13810;48.376;10.944;2023-11-19T02:29:03;8.00;99.90
26037;DHT22;13810;48.376;10.944;2023-11-19T02:29:33;8.00;99.90
26037;DHT22;13810;48.376;10.944;2023-11-19T02:30:05;8.00;99.90
26037;DHT22;13810;48.376;10.944;2023-11-19T02:30:38;8.00;99.90
26037;DHT22;13810;48.376;10.944;2023-11-19T02:31:09;8.00;99.90
26037;DHT22;13810;48.376;10.944;2023-11-19T02:31:40;8.00;99.90
26037;DHT22;13810;48.376;10.944;2023-11-19T02:32:11;8.00;99.90
26037;DHT22;13810;48.376;10.944;2023-11-19T02:32:43;8.00;99.90
26037;DHT22;13810;48.376;10.944;2023-11-19T02:33:14;8.00;99.90
26037;DHT22;13810;48.376;10.944;2023-11-19T02:33:45;8.00;99.90
26037;DHT22;13810;48.376;10.944;2023-11-19T02:34:16;8.00;99.90
26037;DHT22;13810;48.376;10.944;2023-11-19T02:34:46;8.00;99.90
26037;DHT22;13810;48.376;10.944;2023-11-19T02:35:17;8.00;99.90
26037;DHT22;13810;48.376;10.944;2023-11-19T02:35:47;8.00;99.90
26037;DHT22;13810;48.376;10.944;2023-11-19T02:36:18;8.00;99.90
26037;DHT22;13810;48.376;10.944;2023-11-19T02:36:48;8.00;99.90
26037;DHT22;13810;48.376;10.944;2023-11-19T02:37:20;8.00;99.90
26037;DHT22;13810;48.376;10.944;2023-11-19T02:37:50;8.00;99.90
26037;DHT22;13810;48.376;10.944;2023-11-19T02:38:21;8.00;99.90
26037;DHT22;13810;48.376;10.944;2023-11-19T02:38:52;8.00;99.90
26037;DHT22;13810;48.376;10.944;2023-11-19T02:39:22;8.00;99.90
26037;DHT22;13810;48.376;10.944;2023-11-19T02:39:53;8.00;99.90
26037;DHT22;13810;48.376;10.944;2023-11-19T02:40:23;8.00;99.90
26037;DHT22;13810;48.376;10.944;2023-11-19T02:40:54;8.00;99.90
26037;DHT22;13810;48.376;10.944;2023-11-19T02:41:25;8.00;99.90
26037;DHT22;13810;48.376;10.944;2023-11-19T02:41:56;8.00;99.90
26037;DHT22;13810;48.376;10.944;2023-11-19T02:42:26;8.00;99.90
26037;DHT22;13810;48.376;10.944;2023-11-19T02:42:58;8.00;99.90
26037;DHT22;13810;48.376;10.944;2023-11-19T02:43:28;8.00;99.90
26037;DHT22;13810;48.376;10.944;2023-11-19T02:44:01;8.00;99.90
26037;DHT22;13810;48.376;10.944;2023-11-19T02:44:32;8.00;99.90
26037;DHT22;13810;48.376;10.944;2023-11-19T02:45:02;8.00;99.90
26037;DHT22;13810;48.376;10.944;2023-11-19T02:45:36;8.00;99.90
26037;DHT22;13810;48.376;10.944;2023-11-19T02:46:07;8.00;99.90
26037;DHT22;13810;48.376;10.944;2023-11-19T02:46:37;8.00;99.90
26037;DHT22;13810;48.376;10.944;2023-11-19T02:47:08;8.00;99.90
26037;DHT22;13810;48.376;10.944;2023-11-19T02:47:42;8.00;99.90
26037;DHT22;13810;48.376;10.944;2023-11-19T02:48:12;8.00;99.90
26037;DHT22;13810;48.376;10.944;2023-11-19T02:48:44;8.00;99.90
26037;DHT22;13810;48.376;10.944;2023-11-19T02:49:16;8.00;99.90
26037;DHT22;13810;48.376;10.944;2023-11-19T02:49:46;8.00;99.90
26037;DHT22;13810;48.376;10.944;2023-11-19T02:50:18;8.00;99.90
26037;DHT22;13810;48.376;10.944;2023-11-19T02:50:55;8.00;99.90
26037;DHT22;13810;48.376;10.944;2023-11-19T02:51:28;8.00;99.90
26037;DHT22;13810;48.376;10.944;2023-11-19T02:52:00;8.00;99.90
26037;DHT22;13810;48.376;10.944;2023-11-19T02:52:31;8.00;99.90
26037;DHT22;13810;48.376;10.944;2023-11-19T02:53:05;7.90;99.90
26037;DHT22;13810;48.376;10.944;2023-11-19T02:53:37;8.00;99.90
26037;DHT22;13810;48.376;10.944;2023-11-19T02:54:07;8.00;99.90
26037;DHT22;13810;48.376;10.944;2023-11-19T02:54:38;8.00;99.90
26037;DHT22;13810;48.376;10.944;2023-11-19T02:55:09;8.00;99.90
26037;DHT22;13810;48.376;10.944;2023-11-19T02:55:42;8.00;99.90
26037;DHT22;13810;48.376;10.944;2023-11-19T02:56:18;8.00;99.90
26037;DHT22;13810;48.376;10.944;2023-11-19T02:57:00;8.00;99.90
26037;DHT22;13810;48.376;10.944;2023-11-19T02:57:32;8.00;99.90
26037;DHT22;13810;48.376;10.944;2023-11-19T02:58:03;8.00;99.90
26037;DHT22;13810;48.376;10.944;2023-11-19T02:58:39;8.00;99.90
26037;DHT22;13810;48.376;10.944;2023-11-19T02:59:10;8.00;99.90
26037;DHT22;13810;48.376;10.944;2023-11-19T02:59:45;8.00;99.90
26037;DHT22;13810;48.376;10.944;2023-11-19T03:00:19;8.00;99.90
26037;DHT22;13810;48.376;10.944;2023-11-19T03:00:56;8.00;99.90
26037;DHT22;13810;48.376;10.944;2023-11-19T03:01:27;8.00;99.90
26037;DHT22;13810;48.376;10.944;2023-11-19T03:02:01;8.00;99.90
26037;DHT22;13810;48.376;10.944;2023-11-19T03:02:31;8.00;99.90
26037;DHT22;13810;48.376;10.944;2023-11-19T03:03:14;8.00;99.90
26037;DHT22;13810;48.376;10.944;2023-11-19T03:03:50;8.00;99.90
26037;DHT22;13810;48.376;10.944;2023-11-19T03:04:27;8.00;99.90
26037;DHT22;13810;48.376;10.944;2023-11-19T03:04:59;8.00;99.90
26037;DHT22;13810;48.376;10.944;2023-11-19T03:05:29;8.00;99.90
26037;DHT22;13810;48.376;10.944;2023-11-19T03:06:00;8.00;99.90
26037;DHT22;13810;48.376;10.944;2023-11-19T03:06:35;8.00;99.90
26037;DHT22;13810;48.376;10.944;2023-11-19T03:07:06;8.00;99.90
26037;DHT22;13810;48.376;10.944;2023-11-19T03:07:37;8.00;99.90
26037;DHT22;13810;48.376;10.944;2023-11-19T03:08:08;8.00;99.90
26037;DHT22;13810;48.376;10.944;2023-11-19T03:08:38;8.00;99.90
26037;DHT22;13810;48.376;10.944;2023-11-19T03:09:09;8.00;99.90
26037;DHT22;13810;48.376;10.944;2023-11-19T03:09:41;8.00;99.90
26037;DHT22;13810;48.376;10.944;2023-11-19T03:10:12;8.00;99.90
26037;DHT22;13810;48.376;10.944;2023-11-19T03:10:44;8.00;99.90
26037;DHT22;13810;48.376;10.944;2023-11-19T03:11:15;8.00;99.90
26037;DHT22;13810;48.376;10.944;2023-11-19T03:11:46;8.00;99.90
26037;DHT22;13810;48.376;10.944;2023-11-19T03:12:16;8.10;99.90
26037;DHT22;13810;48.376;10.944;2023-11-19T03:12:47;8.00;99.90
26037;DHT22;13810;48.376;10.944;2023-11-19T03:13:18;8.00;99.90
26037;DHT22;13810;48.376;10.944;2023-11-19T03:13:48;8.00;99.90
26037;DHT22;13810;48.376;10.944;2023-11-19T03:14:19;8.10;99.90
26037;DHT22;13810;48.376;10.944;2023-11-19T03:14:49;8.10;99.90
26037;DHT22;13810;48.376;10.944;2023-11-19T03:15:21;8.10;99.90
26037;DHT22;13810;48.376;10.944;2023-11-19T03:15:51;8.10;99.90
26037;DHT22;13810;48.376;10.944;2023-11-19T03:16:22;8.10;99.90
26037;DHT22;13810;48.376;10.944;2023-11-19T03:16:52;8.00;99.90
26037;DHT22;13810;48.376;10.944;2023-11-19T03:17:23;8.10;99.90
26037;DHT22;13810;48.376;10.944;2023-11-19T03:17:54;8.10;99.90
26037;DHT22;13810;48.376;10.944;2023-11-19T03:18:25;8.10;99.90
26037;DHT22;13810;48.376;10.944;2023-11-19T03:18:55;8.10;99.90
26037;DHT22;13810;48.376;10.944;2023-11-19T03:19:26;8.10;99.90